Henderson, North Carolina
Current Conditions -  °F | °C
As of 8:55 AM on Saturday 22 Nov 2014 (Local Time) from KHNZ Reporting Station
Clear Clear  
Wind Chill: 27°   Ceiling: Unl
Heat Index: 34°   Visibility: 10mi
Dew Point: 20°   Wind: 8mph
Humidity: 57%   Direction: 200°SSW
Pressure: 30.57"   Gusts: NA
Location:  36.33°N, 78.4°W
Report Text: KHNZ 221355Z AUTO 20007KT 10SM CLR 01/M07 A3057 RMK AO2 T00101067
Loading
Personal Weather Stations






























Interactive Weather Map New forecast layout! Learn more

10-Day Weather Forecast

Advertisements
Track Severe Weather on mobile